createdAt,value
2022-08-19T00:02:12.295Z,9.15
2022-08-19T00:04:41.338Z,9.05
2022-08-19T00:07:19.997Z,8.90
2022-08-19T00:09:53.533Z,8.27
2022-08-19T00:12:28.676Z,14.20
2022-08-19T00:15:02.322Z,8.13
2022-08-19T00:17:37.617Z,6.53
2022-08-19T00:20:14.437Z,8.93
2022-08-19T00:22:44.881Z,8.05
2022-08-19T00:25:16.428Z,5.35
2022-08-19T00:27:51.263Z,11.45
2022-08-19T00:30:19.499Z,6.57
2022-08-19T00:32:51.548Z,5.50
2022-08-19T00:35:22.918Z,10.82
2022-08-19T00:37:55.780Z,9.68
2022-08-19T00:40:23.723Z,5.55
2022-08-19T00:42:57.787Z,7.97
2022-08-19T00:45:28.203Z,7.95
2022-08-19T00:47:57.549Z,8.38
2022-08-19T00:53:06.137Z,9.63
2022-08-19T00:55:39.397Z,12.68
2022-08-19T00:58:18.300Z,3.33
2022-08-19T01:00:48.508Z,9.68
2022-08-19T01:03:19.262Z,10.40
2022-08-19T01:05:52.632Z,6.18
2022-08-19T01:08:24.109Z,5.70
2022-08-19T01:10:58.327Z,8.13
2022-08-19T01:13:29.554Z,12.10
2022-08-19T01:16:19.285Z,10.85
2022-08-19T01:18:54.189Z,7.40
2022-08-19T01:21:25.743Z,5.70
2022-08-19T01:24:00.630Z,7.10
2022-08-19T01:26:34.991Z,6.78
2022-08-19T01:29:09.105Z,7.22
2022-08-19T01:31:42.060Z,4.75
2022-08-19T01:34:13.031Z,5.68
2022-08-19T01:36:51.179Z,7.73
2022-08-19T01:39:25.300Z,17.00
2022-08-19T01:41:59.100Z,6.60
2022-08-19T01:44:27.096Z,6.20
2022-08-19T01:46:58.143Z,4.57
2022-08-19T01:49:27.729Z,11.80
2022-08-19T01:51:56.246Z,12.60
2022-08-19T01:54:27.909Z,8.60
2022-08-19T01:57:09.496Z,4.60
2022-08-19T01:59:44.382Z,11.90
2022-08-19T02:02:14.927Z,8.02
2022-08-19T02:04:49.084Z,4.55
2022-08-19T02:07:25.737Z,9.02
2022-08-19T02:10:12.517Z,4.65
2022-08-19T02:12:41.982Z,5.35
2022-08-19T02:15:15.927Z,6.22
2022-08-19T02:20:18.584Z,5.88
2022-08-19T02:22:46.876Z,5.32
2022-08-19T02:25:18.308Z,9.20
2022-08-19T02:27:52.644Z,3.22
2022-08-19T02:30:25.382Z,13.85
2022-08-19T02:33:11.551Z,6.72
2022-08-19T02:35:46.321Z,12.80
2022-08-19T02:38:27.102Z,6.70
2022-08-19T02:41:07.119Z,8.90
2022-08-19T02:43:39.822Z,2.83
2022-08-19T02:46:24.272Z,5.75
2022-08-19T02:48:59.483Z,5.57
2022-08-19T02:51:32.145Z,10.73
2022-08-19T02:54:03.585Z,9.27
2022-08-19T02:56:32.425Z,11.13
2022-08-19T02:59:06.096Z,10.30
2022-08-19T03:01:34.460Z,13.90
2022-08-19T03:04:05.589Z,5.15
2022-08-19T03:06:40.395Z,8.00
2022-08-19T03:09:16.496Z,7.95
2022-08-19T03:11:45.003Z,8.27
2022-08-19T03:14:17.441Z,9.80
2022-08-19T03:16:54.384Z,4.47
2022-08-19T03:19:25.057Z,5.88
2022-08-19T03:21:56.592Z,5.97
2022-08-19T03:24:26.506Z,10.48
2022-08-19T03:27:01.880Z,4.80
2022-08-19T03:29:33.634Z,8.18
2022-08-19T03:32:32.883Z,10.35
2022-08-19T03:35:10.404Z,8.25
2022-08-19T03:37:39.184Z,12.65
2022-08-19T03:40:16.377Z,12.25
2022-08-19T03:42:49.419Z,12.05
2022-08-19T03:45:30.056Z,7.77
2022-08-19T03:47:57.952Z,11.10
2022-08-19T03:50:29.621Z,12.23
2022-08-19T03:53:02.305Z,8.18
2022-08-19T03:55:42.004Z,6.57
2022-08-19T03:58:12.091Z,8.68
2022-08-19T04:00:43.909Z,10.05
2022-08-19T04:03:11.788Z,17.08
2022-08-19T04:05:39.515Z,6.18
2022-08-19T04:08:13.369Z,10.32
2022-08-19T04:10:43.050Z,7.38
2022-08-19T04:13:13.964Z,8.77
2022-08-19T04:15:46.058Z,8.40
2022-08-19T04:18:19.579Z,11.70
2022-08-19T04:20:48.877Z,13.32
2022-08-19T04:23:16.747Z,8.60
2022-08-19T04:25:45.222Z,9.70
2022-08-19T04:28:13.890Z,11.65
2022-08-19T04:30:48.673Z,9.90
2022-08-19T04:33:19.692Z,10.27
2022-08-19T04:35:54.776Z,10.90
2022-08-19T04:38:26.284Z,8.45
2022-08-19T04:41:12.604Z,6.88
2022-08-19T04:43:40.649Z,9.35
2022-08-19T04:46:11.482Z,7.80
2022-08-19T04:48:57.869Z,10.45
2022-08-19T04:51:25.792Z,8.68
2022-08-19T04:53:54.196Z,5.43
2022-08-19T04:56:26.775Z,7.45
2022-08-19T04:58:59.356Z,6.43
2022-08-19T05:01:29.552Z,4.85
2022-08-19T05:03:59.689Z,8.18
2022-08-19T05:06:28.116Z,6.75
2022-08-19T05:08:57.260Z,7.57
2022-08-19T05:11:35.113Z,9.32
2022-08-19T05:14:07.583Z,3.88
2022-08-19T05:16:35.788Z,11.40
2022-08-19T05:19:22.759Z,8.30
2022-08-19T05:22:09.103Z,7.70
2022-08-19T05:24:47.447Z,8.50
2022-08-19T05:27:24.540Z,6.18
2022-08-19T05:29:52.436Z,6.20
2022-08-19T05:32:20.546Z,7.25
2022-08-19T05:34:51.463Z,5.45
2022-08-19T05:37:19.284Z,5.45
2022-08-19T05:39:51.275Z,7.47
2022-08-19T05:42:21.813Z,7.93
2022-08-19T05:44:50.287Z,14.00
2022-08-19T05:47:21.136Z,8.77
2022-08-19T05:49:53.160Z,4.97
2022-08-19T05:52:26.144Z,7.05
2022-08-19T05:54:56.789Z,13.10
2022-08-19T05:57:25.843Z,6.60
2022-08-19T05:59:59.039Z,10.68
2022-08-19T06:02:34.379Z,9.18
2022-08-19T06:05:04.885Z,6.73
2022-08-19T06:07:32.744Z,11.88
2022-08-19T06:10:01.482Z,11.50
2022-08-19T06:12:35.437Z,5.90
2022-08-19T06:15:07.412Z,10.67
2022-08-19T06:17:36.376Z,11.77
2022-08-19T06:20:11.384Z,9.95
2022-08-19T06:22:44.919Z,6.45
2022-08-19T06:25:15.271Z,7.40
2022-08-19T06:30:31.268Z,7.10
2022-08-19T06:35:40.629Z,6.00
2022-08-19T06:38:09.475Z,8.15
2022-08-19T06:40:38.710Z,10.25
2022-08-19T06:43:06.631Z,7.03
2022-08-19T06:45:39.911Z,8.48
2022-08-19T06:48:08.597Z,9.50
2022-08-19T06:50:39.307Z,5.97
2022-08-19T06:53:07.634Z,11.07
2022-08-19T06:55:36.409Z,4.38
2022-08-19T06:58:05.335Z,6.38
2022-08-19T07:00:33.643Z,7.85
2022-08-19T07:03:06.193Z,7.38
2022-08-19T07:05:45.428Z,7.30
2022-08-19T07:08:14.875Z,10.18
2022-08-19T07:10:46.881Z,8.30
2022-08-19T07:13:17.845Z,5.30
2022-08-19T07:15:47.577Z,7.07
2022-08-19T07:18:15.617Z,9.23
2022-08-19T07:20:44.082Z,4.53
2022-08-19T07:23:16.120Z,6.40
2022-08-19T07:25:52.733Z,8.32
2022-08-19T07:28:24.493Z,5.32
2022-08-19T07:30:54.504Z,8.27
2022-08-19T07:33:24.459Z,13.32
2022-08-19T07:38:24.447Z,5.88
2022-08-19T07:40:52.789Z,10.52
2022-08-19T07:43:34.731Z,6.70
2022-08-19T07:46:06.844Z,11.75
2022-08-19T07:48:42.909Z,5.45
2022-08-19T07:51:12.287Z,3.35
2022-08-19T07:53:44.440Z,5.90
2022-08-19T07:56:16.176Z,4.88
2022-08-19T07:58:45.987Z,3.05
2022-08-19T08:01:17.125Z,6.88
2022-08-19T08:04:04.444Z,4.18
2022-08-19T08:06:52.973Z,6.05
2022-08-19T08:09:28.049Z,9.07
2022-08-19T08:12:17.973Z,4.07
2022-08-19T08:14:55.927Z,6.10
2022-08-19T08:17:31.060Z,3.60
2022-08-19T08:20:20.717Z,11.25
2022-08-19T08:23:07.486Z,5.50
2022-08-19T08:25:36.781Z,6.07
2022-08-19T08:28:05.807Z,5.38
2022-08-19T08:30:37.331Z,4.63
2022-08-19T08:33:05.688Z,6.70
2022-08-19T08:35:34.578Z,6.47
2022-08-19T08:38:04.738Z,6.13
2022-08-19T08:40:52.431Z,4.30
2022-08-19T08:43:43.054Z,3.00
2022-08-19T08:46:30.769Z,7.82
2022-08-19T08:49:09.620Z,2.08
2022-08-19T08:51:47.854Z,9.02
2022-08-19T08:54:20.389Z,4.80
2022-08-19T08:56:52.922Z,6.10
2022-08-19T08:59:35.129Z,6.03
2022-08-19T09:02:03.057Z,4.70
2022-08-19T09:04:33.633Z,6.15
2022-08-19T09:07:34.995Z,8.43
2022-08-19T09:10:08.770Z,10.70
2022-08-19T09:13:09.235Z,7.40
2022-08-19T09:15:47.610Z,8.15
2022-08-19T09:18:19.354Z,6.90
2022-08-19T09:20:50.611Z,6.60
2022-08-19T09:23:18.484Z,13.77
2022-08-19T09:25:55.044Z,10.07
2022-08-19T09:28:26.937Z,6.63
2022-08-19T09:33:23.551Z,3.83
2022-08-19T09:35:53.736Z,5.57
2022-08-19T09:38:22.299Z,12.13
2022-08-19T09:40:51.029Z,6.50
2022-08-19T09:43:33.307Z,9.43
2022-08-19T09:46:10.204Z,6.25
2022-08-19T09:48:38.756Z,11.73
2022-08-19T09:51:11.853Z,3.58
2022-08-19T09:53:40.243Z,7.30
2022-08-19T09:56:09.725Z,9.45
2022-08-19T09:58:38.391Z,5.57
2022-08-19T10:01:07.382Z,5.80
2022-08-19T10:03:37.136Z,5.07
2022-08-19T10:06:15.189Z,7.68
2022-08-19T10:08:50.127Z,3.97
2022-08-19T10:11:27.765Z,10.45
2022-08-19T10:13:56.799Z,4.22
2022-08-19T10:16:29.201Z,7.95
2022-08-19T10:18:59.336Z,4.10
2022-08-19T10:21:32.335Z,2.00
2022-08-19T10:24:06.432Z,3.78
2022-08-19T10:26:39.008Z,3.03
2022-08-19T10:29:09.267Z,3.78
2022-08-19T10:32:00.296Z,5.10
2022-08-19T10:34:28.497Z,3.35
2022-08-19T10:37:01.250Z,5.35
2022-08-19T10:39:32.748Z,4.53
2022-08-19T10:42:14.783Z,3.67
2022-08-19T10:44:45.146Z,8.00
2022-08-19T10:47:25.637Z,4.13
2022-08-19T10:50:22.430Z,2.05
2022-08-19T10:52:56.468Z,10.70
2022-08-19T10:55:43.549Z,4.47
2022-08-19T10:58:27.384Z,58.00
2022-08-19T11:00:59.734Z,6.00
2022-08-19T11:03:30.505Z,3.53
2022-08-19T11:06:02.624Z,8.90
2022-08-19T11:08:31.835Z,14.40
2022-08-19T11:11:02.333Z,3.45
2022-08-19T11:13:32.425Z,10.55
2022-08-19T11:16:08.279Z,12.85
2022-08-19T11:18:41.406Z,5.70
2022-08-19T11:21:26.240Z,2.90
2022-08-19T11:23:57.539Z,4.38
2022-08-19T11:26:26.769Z,6.15
2022-08-19T11:28:56.063Z,6.40
2022-08-19T11:31:31.739Z,9.15
2022-08-19T11:34:02.639Z,4.78
2022-08-19T11:36:36.067Z,2.35
2022-08-19T11:39:06.650Z,3.55
2022-08-19T11:41:35.027Z,5.38
2022-08-19T11:44:05.594Z,9.13
2022-08-19T11:46:33.511Z,8.52
2022-08-19T11:49:01.787Z,9.88
2022-08-19T11:51:31.906Z,4.28
2022-08-19T11:54:00.568Z,2.58
2022-08-19T11:56:29.248Z,6.88
2022-08-19T11:58:59.304Z,9.23
2022-08-19T12:01:27.877Z,1.83
2022-08-19T12:03:57.305Z,4.32
2022-08-19T12:06:29.565Z,4.60
2022-08-19T12:08:58.200Z,7.85
2022-08-19T12:11:26.733Z,6.63
2022-08-19T12:13:55.406Z,6.95
2022-08-19T12:16:26.673Z,9.38
2022-08-19T12:18:58.556Z,4.82
2022-08-19T12:21:30.811Z,5.45
2022-08-19T12:23:59.749Z,6.65
2022-08-19T12:26:29.133Z,11.90
2022-08-19T12:28:56.908Z,8.77
2022-08-19T12:31:24.740Z,7.57
2022-08-19T12:33:53.557Z,6.53
2022-08-19T12:36:23.016Z,8.20
2022-08-19T12:38:50.944Z,6.78
2022-08-19T12:41:20.385Z,6.85
2022-08-19T12:43:50.319Z,11.05
2022-08-19T12:46:19.232Z,8.45
2022-08-19T12:48:47.416Z,6.72
2022-08-19T12:51:23.297Z,5.05
2022-08-19T12:53:51.201Z,10.73
2022-08-19T12:56:23.161Z,3.10
2022-08-19T12:58:52.891Z,5.50
2022-08-19T13:01:22.570Z,2.70
2022-08-19T13:03:55.162Z,11.02
2022-08-19T13:06:23.732Z,4.25
2022-08-19T13:08:53.672Z,12.63
2022-08-19T13:11:25.738Z,11.48
2022-08-19T13:13:56.936Z,12.88
2022-08-19T13:16:26.680Z,7.85
2022-08-19T13:18:55.310Z,4.35
2022-08-19T13:21:25.700Z,6.20
2022-08-19T13:23:53.971Z,41.88
2022-08-19T13:26:21.960Z,6.32
2022-08-19T13:29:10.316Z,9.95
2022-08-19T13:32:00.169Z,16.15
2022-08-19T13:34:35.086Z,11.55
2022-08-19T13:37:04.785Z,13.18
2022-08-19T13:39:34.567Z,10.73
2022-08-19T13:42:04.183Z,6.57
2022-08-19T13:44:32.815Z,10.27
2022-08-19T13:47:07.928Z,6.50
2022-08-19T13:49:37.416Z,10.20
2022-08-19T13:52:06.534Z,12.32
2022-08-19T13:54:35.348Z,13.50
2022-08-19T13:57:03.613Z,12.55
2022-08-19T13:59:31.476Z,18.13
2022-08-19T14:02:01.186Z,14.77
2022-08-19T14:04:29.291Z,17.88
2022-08-19T14:06:57.181Z,12.95
2022-08-19T14:09:25.069Z,14.20
2022-08-19T14:11:52.944Z,12.68
2022-08-19T14:14:20.805Z,38.17
2022-08-19T14:16:49.387Z,20.13
2022-08-19T14:19:18.877Z,18.55
2022-08-19T14:21:46.733Z,15.63
2022-08-19T14:24:15.384Z,13.38
2022-08-19T14:26:43.312Z,18.02
2022-08-19T14:29:11.410Z,17.42
2022-08-19T14:31:40.984Z,20.50
2022-08-19T14:34:08.830Z,27.08
2022-08-19T14:36:39.280Z,16.83
2022-08-19T14:39:07.545Z,18.42
2022-08-19T14:41:35.998Z,26.35
2022-08-19T14:44:04.029Z,17.55
2022-08-19T14:46:31.884Z,23.45
2022-08-19T14:49:00.420Z,18.17
2022-08-19T14:51:31.459Z,18.95
2022-08-19T14:53:59.463Z,17.90
2022-08-19T14:56:34.483Z,16.42
2022-08-19T14:59:14.110Z,16.23
2022-08-19T15:01:42.183Z,16.10
2022-08-19T15:04:12.140Z,19.40
2022-08-19T15:06:43.547Z,14.65
2022-08-19T15:09:12.539Z,11.52
2022-08-19T15:11:40.490Z,17.98
2022-08-19T15:14:08.915Z,19.10
2022-08-19T15:16:37.013Z,24.80
2022-08-19T15:19:05.636Z,21.20
2022-08-19T15:21:33.633Z,28.38
2022-08-19T15:24:02.523Z,19.45
2022-08-19T15:26:33.227Z,15.48
2022-08-19T15:29:02.162Z,14.95
2022-08-19T15:31:35.222Z,15.93
2022-08-19T15:34:07.472Z,17.02
2022-08-19T15:36:36.261Z,15.07
2022-08-19T15:39:06.584Z,18.73
2022-08-19T15:41:43.577Z,14.48
2022-08-19T15:44:19.616Z,12.75
2022-08-19T15:46:49.453Z,8.40
2022-08-19T15:49:18.956Z,9.75
2022-08-19T15:51:52.201Z,6.60
2022-08-19T15:54:24.232Z,10.50
2022-08-19T15:57:10.745Z,19.38
2022-08-19T16:00:00.766Z,9.10
2022-08-19T16:03:00.228Z,13.95
2022-08-19T16:05:47.083Z,9.15
2022-08-19T16:08:15.657Z,7.35
2022-08-19T16:10:46.001Z,13.02
2022-08-19T16:13:14.016Z,13.43
2022-08-19T16:15:43.263Z,11.30
2022-08-19T16:18:13.694Z,10.57
2022-08-19T16:20:41.661Z,14.65
2022-08-19T16:23:10.616Z,17.33
2022-08-19T16:25:39.481Z,13.35
2022-08-19T16:28:09.938Z,7.00
2022-08-19T16:30:39.557Z,14.20
2022-08-19T16:33:09.200Z,8.52
2022-08-19T16:35:37.043Z,5.75
2022-08-19T16:38:06.059Z,13.98
2022-08-19T16:40:34.555Z,9.40
2022-08-19T16:43:03.032Z,4.07
2022-08-19T16:45:30.968Z,13.98
2022-08-19T16:48:07.565Z,9.07
2022-08-19T16:50:49.301Z,8.05
2022-08-19T16:53:20.583Z,7.93
2022-08-19T16:55:57.347Z,10.38
2022-08-19T16:58:28.163Z,16.70
2022-08-19T17:01:03.253Z,15.07
2022-08-19T17:03:36.448Z,8.95
2022-08-19T17:06:18.405Z,10.20
2022-08-19T17:08:51.435Z,9.07
2022-08-19T17:11:19.924Z,7.45
2022-08-19T17:13:49.485Z,4.60
2022-08-19T17:16:22.413Z,7.93
2022-08-19T17:18:52.734Z,8.80
2022-08-19T17:21:23.231Z,10.82
2022-08-19T17:23:51.589Z,4.10
2022-08-19T17:26:21.023Z,8.48
2022-08-19T17:28:50.785Z,13.23
2022-08-19T17:31:20.312Z,16.83
2022-08-19T17:33:48.738Z,5.95
2022-08-19T17:36:25.907Z,13.25
2022-08-19T17:38:55.466Z,8.85
2022-08-19T17:41:24.802Z,20.92
2022-08-19T17:43:56.114Z,10.45
2022-08-19T17:48:57.626Z,14.20
2022-08-19T17:51:36.062Z,7.80
2022-08-19T17:54:06.557Z,9.60
2022-08-19T17:56:34.543Z,18.55
2022-08-19T17:59:02.358Z,16.90
2022-08-19T18:01:52.594Z,17.23
2022-08-19T18:04:25.190Z,17.95
2022-08-19T18:06:55.363Z,15.85
2022-08-19T18:09:25.737Z,9.93
2022-08-19T18:11:57.117Z,7.47
2022-08-19T18:14:33.355Z,17.77
2022-08-19T18:17:18.199Z,10.38
2022-08-19T18:19:47.705Z,15.07
2022-08-19T18:22:42.354Z,14.20
2022-08-19T18:25:30.681Z,21.27
2022-08-19T18:28:00.743Z,21.52
2022-08-19T18:30:34.852Z,11.10
2022-08-19T18:33:27.760Z,17.10
2022-08-19T18:35:55.959Z,11.27
2022-08-19T18:38:42.862Z,8.52
2022-08-19T18:41:31.247Z,9.75
2022-08-19T18:44:17.549Z,13.02
2022-08-19T18:47:04.094Z,13.95
2022-08-19T18:49:34.028Z,14.45
2022-08-19T18:52:03.715Z,17.80
2022-08-19T18:54:32.093Z,16.60
2022-08-19T18:57:00.292Z,12.23
2022-08-19T18:59:29.554Z,7.57
2022-08-19T19:01:59.075Z,6.55
2022-08-19T19:04:30.401Z,8.95
2022-08-19T19:06:58.658Z,9.77
2022-08-19T19:09:27.273Z,11.20
2022-08-19T19:11:58.884Z,12.90
2022-08-19T19:14:48.636Z,6.40
2022-08-19T19:17:17.364Z,10.35
2022-08-19T19:19:45.862Z,15.48
2022-08-19T19:22:19.431Z,8.88
2022-08-19T19:27:16.397Z,10.85
2022-08-19T19:29:48.485Z,8.98
2022-08-19T19:32:22.992Z,9.18
2022-08-19T19:34:52.088Z,6.20
2022-08-19T19:37:21.165Z,10.02
2022-08-19T19:39:49.294Z,17.20
2022-08-19T19:42:21.490Z,10.55
2022-08-19T19:44:52.169Z,9.07
2022-08-19T19:47:21.595Z,8.07
2022-08-19T19:52:41.159Z,18.55
2022-08-19T19:55:09.939Z,11.25
2022-08-19T19:57:39.848Z,16.30
2022-08-19T20:00:13.096Z,8.43
2022-08-19T20:02:47.793Z,12.90
2022-08-19T20:05:21.521Z,18.23
2022-08-19T20:08:09.624Z,10.15
2022-08-19T20:10:38.388Z,11.27
2022-08-19T20:13:07.149Z,7.40
2022-08-19T20:15:40.335Z,13.98
2022-08-19T20:18:15.405Z,4.53
2022-08-19T20:20:44.558Z,3.83
2022-08-19T20:23:13.869Z,17.67
2022-08-19T20:25:42.165Z,3.85
2022-08-19T20:28:12.066Z,13.35
2022-08-19T20:30:46.334Z,9.43
2022-08-19T20:33:15.058Z,5.00
2022-08-19T20:35:43.729Z,11.07
2022-08-19T20:38:11.621Z,5.90
2022-08-19T20:40:40.272Z,7.55
2022-08-19T20:43:12.194Z,8.85
2022-08-19T20:45:40.741Z,8.88
2022-08-19T20:48:10.587Z,7.25
2022-08-19T20:50:53.260Z,7.00
2022-08-19T20:53:24.752Z,4.93
2022-08-19T20:55:59.834Z,7.47
2022-08-19T20:58:28.185Z,5.55
2022-08-19T21:01:00.611Z,4.40
2022-08-19T21:03:32.188Z,10.50
2022-08-19T21:06:05.953Z,4.53
2022-08-19T21:08:33.942Z,10.48
2022-08-19T21:11:03.235Z,3.38
2022-08-19T21:13:31.615Z,9.07
2022-08-19T21:15:59.611Z,8.10
2022-08-19T21:18:27.586Z,5.13
2022-08-19T21:20:56.409Z,21.85
2022-08-19T21:23:25.964Z,3.42
2022-08-19T21:25:55.208Z,10.38
2022-08-19T21:28:35.076Z,5.00
2022-08-19T21:31:05.751Z,7.15
2022-08-19T21:33:33.935Z,6.65
2022-08-19T21:36:02.759Z,5.40
2022-08-19T21:38:31.051Z,9.45
2022-08-19T21:40:59.091Z,8.77
2022-08-19T21:43:26.945Z,6.70
2022-08-19T21:45:54.786Z,3.60
2022-08-19T21:48:22.672Z,9.10
2022-08-19T21:50:51.039Z,4.80
2022-08-19T21:53:19.198Z,4.43
2022-08-19T21:55:53.799Z,9.45
2022-08-19T21:58:28.338Z,5.95
2022-08-19T22:01:06.030Z,4.25
2022-08-19T22:03:36.108Z,10.90
2022-08-19T22:06:04.738Z,8.02
2022-08-19T22:08:32.601Z,11.00
2022-08-19T22:11:00.428Z,6.05
2022-08-19T22:13:30.422Z,10.95
2022-08-19T22:15:59.016Z,9.80
2022-08-19T22:18:28.281Z,8.00
2022-08-19T22:20:56.851Z,8.73
2022-08-19T22:23:24.891Z,8.82
2022-08-19T22:25:54.204Z,13.45
2022-08-19T22:28:28.019Z,10.30
2022-08-19T22:30:56.472Z,5.13
2022-08-19T22:33:25.871Z,9.50
2022-08-19T22:35:54.756Z,6.63
2022-08-19T22:38:24.730Z,13.02
2022-08-19T22:40:53.433Z,5.85
2022-08-19T22:43:30.138Z,8.98
2022-08-19T22:46:00.296Z,10.00
2022-08-19T22:48:30.545Z,6.25
2022-08-19T22:51:17.982Z,7.55
2022-08-19T22:53:47.155Z,5.50
2022-08-19T22:56:18.281Z,7.30
2022-08-19T22:58:46.795Z,9.60
2022-08-19T23:01:27.726Z,10.32
2022-08-19T23:03:59.624Z,10.13
2022-08-19T23:06:33.942Z,14.25
2022-08-19T23:09:07.189Z,14.52
2022-08-19T23:11:38.217Z,23.23
2022-08-19T23:14:11.474Z,19.75
2022-08-19T23:16:41.685Z,26.65
2022-08-19T23:19:10.777Z,20.10
2022-08-19T23:21:40.518Z,31.65
2022-08-19T23:24:08.903Z,36.80
2022-08-19T23:26:38.932Z,31.83
2022-08-19T23:29:26.981Z,34.05
2022-08-19T23:31:54.769Z,42.50
2022-08-19T23:34:23.000Z,36.40
2022-08-19T23:36:51.990Z,40.15
2022-08-19T23:39:19.846Z,38.88
2022-08-19T23:41:49.118Z,40.70
2022-08-19T23:44:17.551Z,47.88
2022-08-19T23:46:51.889Z,32.47
2022-08-19T23:49:24.814Z,33.75
2022-08-19T23:51:54.411Z,36.75
2022-08-19T23:54:22.588Z,42.63
2022-08-19T23:57:14.173Z,32.50
2022-08-19T23:59:45.721Z,28.40
